Time;durP1;ratioP1;P1;durP2;ratioP2;P2;SDS_P1;SDS_P2;PMS_P1;PMS_P2;Temp;Humidity;BMP_temperature;BMP_pressure;BME280_temperature;BME280_humidity;BME280_pressure;Samples;Min_cycle;Max_cycle;Signal;HPM_P1;HPM_P2
2021/10/09 00:02:03;;;;;;;33.20;23.07;;;;;;;10.58;84.99;103415.19;4993269;28;20192;-77
2021/10/09 00:04:29;;;;;;;33.90;23.17;;;;;;;10.50;84.50;103421.56;4994110;28;20319;-76
2021/10/09 00:06:54;;;;;;;30.83;22.03;;;;;;;10.41;84.86;103411.63;4983672;28;20205;-77
2021/10/09 00:09:20;;;;;;;33.23;23.10;;;;;;;10.40;85.53;103417.53;4955356;28;20181;-77
2021/10/09 00:11:45;;;;;;;28.87;22.27;;;;;;;10.38;84.96;103416.56;4970080;28;20189;-77
2021/10/09 00:14:12;;;;;;;29.97;22.00;;;;;;;10.30;84.85;103412.66;4955405;28;20201;-76
2021/10/09 00:16:42;;;;;;;31.40;21.73;;;;;;;10.26;84.26;103415.81;4955837;29;20196;-77
2021/10/09 00:19:08;;;;;;;29.07;21.13;;;;;;;10.25;84.17;103415.72;4988103;28;20601;-78
2021/10/09 00:21:33;;;;;;;31.93;22.43;;;;;;;10.26;83.79;103415.81;4987249;28;20197;-77
2021/10/09 00:24:00;;;;;;;31.10;22.17;;;;;;;10.16;84.11;103418.59;4956847;28;20213;-77
2021/10/09 00:26:26;;;;;;;32.53;22.20;;;;;;;10.11;84.34;103417.44;4988436;28;20201;-78
2021/10/09 00:28:51;;;;;;;29.60;22.43;;;;;;;10.15;84.81;103416.84;4991358;28;20613;-78
2021/10/09 00:31:17;;;;;;;30.53;21.80;;;;;;;10.19;85.15;103418.75;4960654;28;20213;-76
2021/10/09 00:33:42;;;;;;;32.20;21.53;;;;;;;10.15;84.44;103411.72;4991229;28;20217;-77
2021/10/09 00:36:08;;;;;;;33.23;21.53;;;;;;;10.11;85.05;103414.88;4958434;29;20259;-76
2021/10/09 00:38:33;;;;;;;29.00;21.60;;;;;;;10.12;85.22;103411.50;4958209;29;20650;-77
2021/10/09 00:40:58;;;;;;;32.53;21.93;;;;;;;10.05;84.37;103403.34;4958565;28;20194;-76
2021/10/09 00:43:24;;;;;;;29.63;21.20;;;;;;;10.06;84.80;103411.13;4965038;28;20189;-77
2021/10/09 00:45:55;;;;;;;30.40;20.70;;;;;;;10.07;84.21;103417.13;4972431;28;20192;-77
2021/10/09 00:48:21;;;;;;;30.20;20.90;;;;;;;10.02;84.57;103398.00;4968674;28;20184;-77
2021/10/09 00:50:46;;;;;;;30.50;20.97;;;;;;;9.99;83.98;103408.03;4982789;28;20195;-77
2021/10/09 00:53:13;;;;;;;30.93;20.47;;;;;;;9.97;83.74;103405.41;4987914;28;20187;-76
2021/10/09 00:55:39;;;;;;;28.30;20.60;;;;;;;9.96;83.74;103410.41;4988633;28;20676;-77
2021/10/09 00:58:05;;;;;;;31.43;20.20;;;;;;;9.94;83.99;103406.88;4996934;28;20234;-75
2021/10/09 01:00:31;;;;;;;29.27;20.83;;;;;;;9.87;83.99;103405.59;4996582;28;20576;-77
2021/10/09 01:02:58;;;;;;;32.40;21.00;;;;;;;9.89;84.32;103408.25;4999641;28;20188;-77
2021/10/09 01:05:26;;;;;;;31.80;20.50;;;;;;;9.90;84.21;103403.22;4971464;28;20694;-79
2021/10/09 01:07:52;;;;;;;28.50;19.83;;;;;;;9.89;83.67;103405.69;4987718;28;20188;-76
2021/10/09 01:10:17;;;;;;;30.50;21.27;;;;;;;9.84;83.73;103405.41;4962204;28;20185;-76
2021/10/09 01:12:43;;;;;;;34.20;20.90;;;;;;;9.87;83.92;103407.28;4986892;28;20243;-76
2021/10/09 01:15:35;;;;;;;29.13;20.27;;;;;;;9.81;84.08;103405.22;4988624;28;20717;-77
2021/10/09 01:18:07;;;;;;;27.47;18.93;;;;;;;9.75;83.43;103404.81;4987317;28;20221;-76
2021/10/09 01:20:43;;;;;;;26.07;19.97;;;;;;;9.73;83.70;103405.53;4988465;28;20185;-76
2021/10/09 01:23:08;;;;;;;28.90;19.53;;;;;;;9.66;83.79;103408.47;4977127;28;20192;-77
2021/10/09 01:25:36;;;;;;;25.90;18.33;;;;;;;9.61;82.87;103408.19;4972234;28;20191;-76
2021/10/09 01:28:02;;;;;;;31.07;19.93;;;;;;;9.53;83.39;103403.34;4977774;28;20207;-76
2021/10/09 01:30:27;;;;;;;28.03;20.03;;;;;;;9.43;83.31;103407.00;4989423;28;20644;-77
2021/10/09 01:32:53;;;;;;;26.43;19.03;;;;;;;9.33;83.57;103409.75;4984723;28;20207;-77
2021/10/09 01:35:18;;;;;;;24.53;18.17;;;;;;;9.27;82.77;103414.44;4999480;28;20608;-77
2021/10/09 01:37:44;;;;;;;28.80;19.43;;;;;;;9.24;82.36;103411.69;4993497;28;20207;-77
2021/10/09 01:40:11;;;;;;;28.67;18.67;;;;;;;9.17;82.42;103413.75;4988489;28;20203;-77
2021/10/09 01:42:42;;;;;;;27.63;18.07;;;;;;;9.12;82.27;103405.75;5001464;28;20210;-77
2021/10/09 01:45:08;;;;;;;21.90;18.03;;;;;;;9.03;82.41;103405.16;4982369;28;20287;-77
2021/10/09 01:47:41;;;;;;;25.33;18.50;;;;;;;8.94;82.62;103409.66;4984608;28;20191;-76
2021/10/09 01:50:11;;;;;;;25.93;18.73;;;;;;;8.94;82.04;103403.66;4990351;28;20195;-77
2021/10/09 01:52:37;;;;;;;28.10;18.67;;;;;;;8.94;82.27;103404.53;4998103;28;20279;-77
2021/10/09 01:55:03;;;;;;;32.27;19.83;;;;;;;8.87;82.74;103404.91;4981875;28;20297;-77
2021/10/09 01:57:28;;;;;;;30.27;20.33;;;;;;;8.88;83.00;103405.78;4982194;28;20211;-77
2021/10/09 01:59:54;;;;;;;29.53;20.17;;;;;;;8.89;83.50;103407.59;4982573;28;20560;-77
2021/10/09 02:02:24;;;;;;;26.77;19.07;;;;;;;8.87;82.79;103402.38;4973669;28;20555;-77
2021/10/09 02:04:50;;;;;;;28.40;20.33;;;;;;;8.80;83.25;103399.31;4969717;28;20212;-77
2021/10/09 02:07:20;;;;;;;27.60;19.63;;;;;;;8.71;83.12;103403.78;4981505;28;20180;-79
2021/10/09 02:09:46;;;;;;;28.53;19.40;;;;;;;8.59;82.94;103405.50;4989661;28;20183;-77
2021/10/09 02:12:11;;;;;;;29.13;20.40;;;;;;;8.60;82.82;103400.50;4990552;28;20188;-77
2021/10/09 02:14:48;;;;;;;27.20;18.40;;;;;;;8.51;82.76;103396.41;4983927;28;20204;-77
2021/10/09 02:26:03;;;;;;;30.57;19.07;;;;;;;8.33;83.04;103401.16;4989856;28;20244;-79
2021/10/09 02:28:29;;;;;;;25.80;19.17;;;;;;;8.24;83.67;103403.06;4978389;28;20200;-74
2021/10/09 02:30:55;;;;;;;32.67;20.27;;;;;;;8.23;83.60;103408.06;4974849;28;20217;-76
2021/10/09 02:33:22;;;;;;;30.43;19.60;;;;;;;8.20;82.85;103406.19;4967813;28;20192;-78
2021/10/09 02:35:48;;;;;;;28.33;19.10;;;;;;;8.11;83.09;103404.63;4997028;28;20258;-79
2021/10/09 02:38:14;;;;;;;25.03;17.73;;;;;;;8.08;82.36;103400.19;4998001;28;20207;-79
2021/10/09 02:40:42;;;;;;;27.63;20.23;;;;;;;8.09;83.85;103404.53;4981191;28;20212;-78
2021/10/09 02:43:08;;;;;;;26.03;18.47;;;;;;;8.06;82.92;103398.31;5008450;28;20195;-79
2021/10/09 02:45:34;;;;;;;31.47;19.53;;;;;;;8.02;83.43;103401.44;4978588;28;20196;-79
2021/10/09 02:48:03;;;;;;;32.37;18.83;;;;;;;7.97;83.20;103401.09;4971782;28;20187;-79
2021/10/09 02:50:33;;;;;;;29.23;18.07;;;;;;;7.93;82.94;103404.19;4972101;28;20207;-79
2021/10/09 02:52:59;;;;;;;27.80;20.67;;;;;;;7.93;83.16;103404.19;4979283;28;20189;-79
2021/10/09 02:55:25;;;;;;;26.20;17.90;;;;;;;7.88;83.01;103402.13;5014737;28;20626;-79
2021/10/09 02:57:51;;;;;;;26.87;18.07;;;;;;;7.80;83.27;103398.13;4963120;28;20258;-78
2021/10/09 03:00:18;;;;;;;30.80;19.07;;;;;;;7.80;83.75;103405.78;4987137;28;20184;-79
2021/10/09 03:02:44;;;;;;;27.07;19.20;;;;;;;7.79;83.45;103406.56;4976574;28;20581;-76
2021/10/09 03:05:12;;;;;;;28.20;19.20;;;;;;;7.81;84.19;103410.09;4973609;28;20205;-80
2021/10/09 03:07:39;;;;;;;30.63;18.73;;;;;;;7.81;84.42;103402.44;5000622;28;20188;-76
2021/10/09 03:10:07;;;;;;;28.57;18.87;;;;;;;7.78;84.73;103400.56;4975754;28;20184;-78
2021/10/09 03:12:33;;;;;;;26.90;19.80;;;;;;;7.82;84.86;103400.00;4978215;28;20238;-78
2021/10/09 03:14:58;;;;;;;31.03;21.17;;;;;;;7.82;85.02;103396.56;4987358;28;20204;-78
2021/10/09 03:17:23;;;;;;;28.87;20.70;;;;;;;7.84;84.84;103402.69;4987695;28;20188;-78
2021/10/09 03:19:49;;;;;;;32.67;21.73;;;;;;;7.83;85.53;103400.91;4995046;28;20699;-78
2021/10/09 03:22:16;;;;;;;33.30;21.90;;;;;;;7.78;84.82;103404.81;4986749;28;20639;-79
2021/10/09 03:24:41;;;;;;;31.23;20.43;;;;;;;7.75;85.91;103402.91;4981560;28;20227;-79
2021/10/09 03:27:10;;;;;;;30.00;20.10;;;;;;;7.75;86.13;103408.03;4974917;28;20550;-77
2021/10/09 03:29:36;;;;;;;30.20;20.90;;;;;;;7.74;85.08;103403.66;5014748;28;20188;-79
2021/10/09 03:32:02;;;;;;;31.57;21.47;;;;;;;7.68;85.48;103410.00;4973614;28;20710;-78
2021/10/09 03:34:32;;;;;;;31.33;20.77;;;;;;;7.65;84.24;103405.56;4973994;28;20307;-77
2021/10/09 03:37:00;;;;;;;25.53;19.03;;;;;;;7.62;84.87;103400.25;4956095;28;20251;-77
2021/10/09 03:39:28;;;;;;;29.30;19.87;;;;;;;7.57;84.63;103401.59;5014254;28;20285;-77
2021/10/09 03:42:02;;;;;;;32.83;20.50;;;;;;;7.59;84.11;103411.88;4980053;28;20189;-78
2021/10/09 03:44:34;;;;;;;29.83;19.50;;;;;;;7.52;85.25;103410.56;4986059;28;20205;-78
2021/10/09 03:50:07;;;;;;;28.53;19.33;;;;;;;7.40;84.60;103408.75;4971173;28;20204;-78
2021/10/09 03:52:39;;;;;;;34.83;18.83;;;;;;;7.31;84.18;103418.28;4975336;28;20185;-78
2021/10/09 03:55:11;;;;;;;27.63;18.50;;;;;;;7.33;83.12;103411.66;4977785;28;20212;-78
2021/10/09 03:57:37;;;;;;;32.17;19.07;;;;;;;7.27;83.78;103409.53;4989621;28;20199;-78
2021/10/09 04:00:05;;;;;;;24.30;18.00;;;;;;;7.23;83.06;103414.31;4985723;28;20645;-77
2021/10/09 04:02:41;;;;;;;27.87;17.83;;;;;;;7.13;83.43;103414.38;4982326;28;20196;-78
2021/10/09 04:05:07;;;;;;;25.83;18.47;;;;;;;7.11;84.04;103411.75;4988844;28;20239;-77
2021/10/09 04:07:33;;;;;;;25.13;18.67;;;;;;;7.13;83.54;103412.72;5009657;28;20550;-78
2021/10/09 04:09:58;;;;;;;25.40;17.47;;;;;;;7.05;83.76;103411.25;4960227;28;20185;-78
2021/10/09 04:12:24;;;;;;;25.23;17.73;;;;;;;7.01;84.50;103416.91;5013790;28;20196;-79
2021/10/09 04:14:50;;;;;;;29.17;18.93;;;;;;;7.04;84.28;103414.59;5014013;28;20206;-78
2021/10/09 04:17:16;;;;;;;26.60;18.57;;;;;;;6.98;83.75;103419.22;4990123;28;20229;-79
2021/10/09 04:19:41;;;;;;;25.50;17.67;;;;;;;6.89;83.47;103422.72;4996281;28;20775;-77
2021/10/09 04:22:07;;;;;;;24.23;18.23;;;;;;;6.87;83.88;103420.06;4991297;28;20267;-78
2021/10/09 04:24:34;;;;;;;25.50;17.47;;;;;;;6.80;83.75;103420.41;4978670;28;20222;-78
2021/10/09 04:27:00;;;;;;;24.53;17.60;;;;;;;6.77;83.80;103412.50;4980652;28;20184;-77
2021/10/09 04:29:26;;;;;;;23.70;17.73;;;;;;;6.80;84.23;103415.31;4969714;28;20931;-79
2021/10/09 04:31:52;;;;;;;27.47;17.97;;;;;;;6.77;83.50;103416.75;4984747;28;20184;-77
2021/10/09 04:34:18;;;;;;;25.67;17.57;;;;;;;6.77;83.77;103416.75;4983933;28;20695;-79
2021/10/09 04:36:44;;;;;;;25.73;17.13;;;;;;;6.73;83.74;103422.38;4970741;28;20218;-78
2021/10/09 04:39:10;;;;;;;26.07;17.63;;;;;;;6.70;83.62;103411.94;4974618;28;20204;-78
2021/10/09 04:41:35;;;;;;;24.03;17.60;;;;;;;6.71;84.29;103406.97;4980194;28;20184;-77
2021/10/09 04:44:02;;;;;;;27.13;18.30;;;;;;;6.69;84.12;103416.16;4981462;28;20211;-78
2021/10/09 04:46:28;;;;;;;28.40;18.10;;;;;;;6.62;84.30;103410.47;5016337;28;20212;-77
2021/10/09 04:48:54;;;;;;;27.03;18.07;;;;;;;6.58;85.14;103411.03;4969831;28;20216;-78
2021/10/09 04:51:19;;;;;;;26.07;18.90;;;;;;;6.60;84.40;103418.00;4989737;28;20184;-77
2021/10/09 04:53:45;;;;;;;32.77;19.67;;;;;;;6.70;85.03;103417.94;4978486;28;20235;-79
2021/10/09 04:56:10;;;;;;;29.17;19.43;;;;;;;6.74;84.87;103414.84;4974228;28;20180;-78
2021/10/09 04:58:36;;;;;;;29.70;19.43;;;;;;;6.76;85.61;103415.84;4988551;28;20288;-78
2021/10/09 05:01:02;;;;;;;28.30;19.20;;;;;;;6.85;85.98;103416.53;4984336;28;20626;-77
2021/10/09 05:03:27;;;;;;;27.93;18.87;;;;;;;6.88;85.85;103420.97;4986751;28;20274;-78
2021/10/09 05:05:53;;;;;;;28.83;18.97;;;;;;;6.87;86.06;103419.19;4987091;28;20199;-77
2021/10/09 05:08:19;;;;;;;27.43;18.00;;;;;;;6.90;85.60;103414.31;4985948;28;20192;-78
2021/10/09 05:10:45;;;;;;;26.57;17.53;;;;;;;6.94;85.84;103419.78;4972188;28;20199;-78
2021/10/09 05:13:14;;;;;;;29.80;21.10;;;;;;;6.92;85.94;103415.34;4980765;28;20712;-78
2021/10/09 05:15:42;;;;;;;28.03;18.50;;;;;;;6.94;85.26;103412.13;4989865;28;20708;-77
2021/10/09 05:18:09;;;;;;;27.90;18.27;;;;;;;6.95;84.98;103418.13;4979517;28;20684;-77
2021/10/09 05:20:36;;;;;;;26.40;17.47;;;;;;;6.95;85.71;103423.22;4980652;28;20206;-77
2021/10/09 05:23:01;;;;;;;28.57;17.03;;;;;;;7.07;84.73;103430.09;4985063;28;20842;-77
2021/10/09 05:25:28;;;;;;;27.57;18.30;;;;;;;7.02;84.97;103430.53;4971445;28;20225;-78
2021/10/09 05:27:59;;;;;;;26.47;15.93;;;;;;;7.05;84.12;103428.22;4991334;28;20184;-79
2021/10/09 05:30:26;;;;;;;23.77;16.60;;;;;;;7.05;84.44;103434.19;4988957;28;20227;-78
2021/10/09 05:35:36;;;;;;;24.50;16.33;;;;;;;7.19;84.00;103440.34;4979483;28;20185;-76
2021/10/09 05:38:01;;;;;;;31.20;15.60;;;;;;;7.23;84.34;103443.19;4983154;28;20589;-78
2021/10/09 05:40:27;;;;;;;23.87;17.47;;;;;;;7.18;83.88;103444.53;4962343;28;20199;-78
2021/10/09 05:42:54;;;;;;;26.63;18.10;;;;;;;7.20;83.37;103442.09;4986553;28;20192;-78
2021/10/09 05:45:19;;;;;;;25.43;16.50;;;;;;;7.23;83.41;103443.19;4979803;28;20212;-78
2021/10/09 05:47:47;;;;;;;25.27;16.17;;;;;;;7.21;83.87;103442.22;4984829;28;20200;-77
2021/10/09 05:50:13;;;;;;;28.17;16.50;;;;;;;7.30;83.36;103442.91;4978258;28;20267;-78
2021/10/09 05:55:17;;;;;;;28.40;16.73;;;;;;;7.36;83.12;103442.44;4981092;28;20204;-78
2021/10/09 05:58:07;;;;;;;27.53;16.43;;;;;;;7.33;83.22;103445.66;4977821;28;20188;-78
2021/10/09 06:44:21;;;;;;;21.03;15.07;;;;;;;8.36;78.54;103467.75;4975326;28;20204;-78
2021/10/09 07:00:45;;;;;;;20.07;13.57;;;;;;;9.19;74.39;103476.97;4993170;28;20223;-79
2021/10/09 07:03:16;;;;;;;22.43;14.13;;;;;;;9.34;73.48;103480.53;4969076;28;20264;-78
2021/10/09 07:05:42;;;;;;;24.70;13.33;;;;;;;9.50;73.52;103473.06;4988594;28;20274;-78
2021/10/09 07:08:25;;;;;;;23.93;14.10;;;;;;;9.57;72.39;103477.81;4976554;28;20203;-78
2021/10/09 07:11:01;;;;;;;21.40;13.23;;;;;;;9.70;71.70;103476.94;4984833;28;20614;-77
2021/10/09 07:13:26;;;;;;;22.43;13.33;;;;;;;9.84;71.25;103478.72;4987232;28;20224;-77
2021/10/09 07:15:52;;;;;;;21.00;14.07;;;;;;;9.96;70.96;103476.97;5004907;28;20191;-77
2021/10/09 07:18:17;;;;;;;20.20;13.07;;;;;;;10.06;69.72;103476.78;4990464;28;20238;-78
2021/10/09 07:20:43;;;;;;;22.67;14.20;;;;;;;10.20;69.16;103483.66;4984918;28;20193;-78
2021/10/09 07:23:11;;;;;;;24.50;14.17;;;;;;;10.39;68.92;103474.69;4978925;28;20184;-78
2021/10/09 07:25:38;;;;;;;22.33;12.77;;;;;;;10.62;68.62;103482.13;4979743;28;20196;-77
2021/10/09 07:28:04;;;;;;;23.60;13.87;;;;;;;10.65;68.06;103481.41;4968532;28;20204;-78
2021/10/09 07:30:30;;;;;;;21.47;14.80;;;;;;;10.75;68.31;103483.75;4977588;28;20665;-75
2021/10/09 07:32:56;;;;;;;24.33;14.90;;;;;;;10.96;67.51;103483.34;4977668;28;20187;-77
2021/10/09 07:35:22;;;;;;;22.50;15.43;;;;;;;11.08;66.87;103485.78;4980191;28;20304;-78
2021/10/09 07:37:48;;;;;;;25.03;14.13;;;;;;;11.30;66.94;103486.25;5010851;28;20219;-78
2021/10/09 07:40:13;;;;;;;22.20;13.70;;;;;;;11.42;66.14;103480.16;4980647;28;20264;-75
2021/10/09 07:42:39;;;;;;;23.63;13.90;;;;;;;11.55;66.47;103479.16;4993374;28;20181;-77
2021/10/09 07:45:05;;;;;;;21.70;13.40;;;;;;;11.66;66.58;103481.59;4979744;28;20287;-79
2021/10/09 07:47:31;;;;;;;20.73;13.67;;;;;;;11.74;65.33;103479.47;4960284;28;20200;-76
2021/10/09 07:49:56;;;;;;;20.67;13.13;;;;;;;11.99;65.08;103482.63;4973130;28;20189;-75
2021/10/09 07:52:22;;;;;;;20.60;13.03;;;;;;;12.14;62.96;103481.78;4958771;28;20188;-76
2021/10/09 07:54:47;;;;;;;24.83;13.13;;;;;;;12.26;63.52;103489.28;4960919;28;20220;-76
2021/10/09 07:57:12;;;;;;;18.57;12.37;;;;;;;12.39;63.28;103486.59;4969149;28;20192;-78
2021/10/09 07:59:38;;;;;;;17.20;12.00;;;;;;;12.38;62.68;103493.41;4975534;28;20288;-76
2021/10/09 08:02:05;;;;;;;21.93;13.13;;;;;;;12.66;62.03;103486.38;5005724;28;20176;-75
2021/10/09 08:04:30;;;;;;;21.93;12.97;;;;;;;12.52;63.13;103489.91;4962191;28;20223;-75
2021/10/09 08:06:56;;;;;;;21.23;13.20;;;;;;;12.75;61.80;103484.28;4994544;28;20196;-76
2021/10/09 08:09:22;;;;;;;23.30;13.20;;;;;;;12.98;61.85;103495.81;5025424;28;20189;-76
2021/10/09 08:11:47;;;;;;;23.07;12.07;;;;;;;13.24;59.67;103494.59;4976411;28;20647;-76
2021/10/09 08:14:12;;;;;;;21.70;12.77;;;;;;;13.40;58.52;103489.44;4976043;28;20673;-78
2021/10/09 08:16:38;;;;;;;19.33;12.50;;;;;;;13.44;57.94;103494.78;4975950;28;20195;-76
2021/10/09 08:19:04;;;;;;;17.27;12.30;;;;;;;13.64;58.72;103495.78;4992059;28;20218;-76
2021/10/09 08:21:32;;;;;;;19.47;12.40;;;;;;;13.81;57.30;103487.22;4975411;28;20276;-76
2021/10/09 08:24:05;;;;;;;20.50;12.83;;;;;;;13.88;57.83;103484.09;4977037;28;20275;-75
2021/10/09 08:26:59;;;;;;;17.87;12.53;;;;;;;14.09;56.38;103490.28;4977988;28;20192;-75
2021/10/09 08:40:17;;;;;;;18.60;11.90;;;;;;;14.52;53.09;103476.94;4983448;28;20193;-76
2021/10/09 08:42:44;;;;;;;26.30;11.63;;;;;;;14.66;53.22;103482.69;4979005;28;20484;-76
2021/10/09 08:45:11;;;;;;;17.30;11.70;;;;;;;14.87;53.64;103478.50;4978550;28;20211;-76
2021/10/09 08:47:37;;;;;;;21.07;11.73;;;;;;;15.17;51.43;103478.16;4996372;28;20218;-76
2021/10/09 08:50:08;;;;;;;18.00;11.40;;;;;;;15.28;52.73;103478.63;4982147;28;20191;-75
2021/10/09 08:52:34;;;;;;;18.23;10.83;;;;;;;15.65;52.12;103475.06;5019165;28;20287;-75
2021/10/09 08:55:23;;;;;;;16.40;10.73;;;;;;;15.83;49.46;103473.22;4982021;28;20218;-76
2021/10/09 08:57:50;;;;;;;17.23;9.97;;;;;;;15.98;50.83;103475.53;4961155;28;20165;-76
2021/10/09 09:00:20;;;;;;;16.27;10.17;;;;;;;16.88;47.89;103460.91;4971904;28;20181;-76
2021/10/09 09:03:02;;;;;;;14.83;9.40;;;;;;;22.06;36.02;103438.72;4978493;28;20196;-76
2021/10/09 09:05:49;;;;;;;13.87;10.07;;;;;;;24.63;29.96;103435.84;4977152;28;20266;-76
2021/10/09 09:27:56;;;;;;;12.10;8.70;;;;;;;29.22;23.79;103412.72;4999777;28;20224;-78
2021/10/09 09:33:37;;;;;;;11.73;8.57;;;;;;;29.64;23.68;103417.25;4998224;28;20203;-77
2021/10/09 09:41:20;;;;;;;11.60;8.68;;;;;;;29.89;22.94;103423.81;4981732;28;20551;-77
2021/10/09 09:43:53;;;;;;;10.35;8.38;;;;;;;29.33;23.13;103409.91;4980034;28;20396;-77
2021/10/09 09:46:22;;;;;;;12.70;9.02;;;;;;;28.22;23.26;103415.00;4946365;28;20287;-77
2021/10/09 09:48:48;;;;;;;12.00;8.48;;;;;;;29.08;23.00;103405.91;4981302;28;20210;-77
2021/10/09 09:51:15;;;;;;;15.27;8.65;;;;;;;29.44;23.21;103398.25;4985786;28;20192;-77
2021/10/09 09:53:43;;;;;;;14.40;8.43;;;;;;;29.66;22.72;103396.94;4982230;28;20259;-77
2021/10/09 09:56:09;;;;;;;11.70;8.05;;;;;;;32.02;21.60;103386.03;4979033;28;20195;-77
2021/10/09 09:58:38;;;;;;;10.10;8.35;;;;;;;31.01;20.84;103390.50;4979600;28;20288;-77
2021/10/09 10:01:06;;;;;;;10.73;7.93;;;;;;;31.89;20.76;103391.69;4978967;28;20195;-77
2021/10/09 10:03:32;;;;;;;9.90;8.45;;;;;;;31.43;20.95;103394.72;4979419;28;20197;-77
2021/10/09 10:05:58;;;;;;;12.57;8.65;;;;;;;29.28;22.64;103393.22;4979589;28;20193;-77
2021/10/09 10:08:25;;;;;;;12.65;8.32;;;;;;;32.59;20.78;103381.63;4979791;28;20267;-77
2021/10/09 10:10:53;;;;;;;13.82;8.55;;;;;;;30.31;21.81;103387.72;4960698;28;20189;-77
2021/10/09 10:13:22;;;;;;;10.70;8.40;;;;;;;33.38;21.17;103375.44;4992458;28;20208;-77
2021/10/09 10:15:49;;;;;;;12.43;8.18;;;;;;;31.69;20.58;103373.69;4960915;28;20189;-77
2021/10/09 10:18:46;;;;;;;8.70;7.80;;;;;;;30.38;22.21;103385.81;4994092;28;20244;-77
2021/10/09 10:21:13;;;;;;;10.40;7.95;;;;;;;28.17;24.75;103392.22;4959957;28;20196;-78
2021/10/09 10:23:44;;;;;;;14.00;8.27;;;;;;;31.53;21.39;103379.47;4960326;28;20209;-77
2021/10/09 10:26:18;;;;;;;10.25;8.32;;;;;;;32.74;20.33;103374.97;4960044;29;20536;-77
2021/10/09 10:28:43;;;;;;;10.10;8.13;;;;;;;31.43;20.52;103384.13;4960119;29;20200;-77
2021/10/09 10:31:09;;;;;;;11.70;8.60;;;;;;;33.59;20.23;103377.34;4960527;29;20221;-77
2021/10/09 10:33:39;;;;;;;26.25;9.07;;;;;;;33.18;20.07;103380.56;4960979;28;20216;-78
2021/10/09 10:36:05;;;;;;;10.13;8.35;;;;;;;34.13;19.28;103379.78;4960481;28;20201;-77
2021/10/09 10:38:37;;;;;;;9.70;7.97;;;;;;;34.27;19.65;103380.09;4960107;28;20213;-77
2021/10/09 10:41:04;;;;;;;9.52;8.45;;;;;;;32.63;20.10;103377.06;4961000;28;20193;-77
2021/10/09 10:43:53;;;;;;;12.98;8.48;;;;;;;33.28;19.89;103375.81;4961532;28;20272;-78
2021/10/09 10:51:45;;;;;;;10.23;8.60;;;;;;;35.20;18.72;103365.59;4981464;28;20204;-78
2021/10/09 10:56:58;;;;;;;11.45;7.72;;;;;;;32.78;19.90;103371.28;4961891;28;20188;-78
2021/10/09 10:59:37;;;;;;;11.75;8.10;;;;;;;33.17;20.11;103369.97;4960818;28;20217;-77
2021/10/09 11:02:24;;;;;;;12.50;8.50;;;;;;;31.53;21.79;103376.81;4992151;28;20220;-77
2021/10/09 11:04:54;;;;;;;14.25;8.52;;;;;;;32.59;20.08;103367.50;4958476;28;20969;-77
2021/10/09 11:07:28;;;;;;;14.23;8.18;;;;;;;31.47;20.71;103372.53;4975906;28;20689;-77
2021/10/09 11:09:59;;;;;;;11.00;8.30;;;;;;;31.06;20.98;103366.53;4960262;28;20197;-77
2021/10/09 11:12:33;;;;;;;11.85;8.38;;;;;;;30.63;22.84;103371.13;4960388;28;20249;-76
2021/10/09 11:15:01;;;;;;;12.00;7.78;;;;;;;28.27;24.98;103362.22;4960427;28;20205;-78
2021/10/09 11:17:34;;;;;;;11.05;8.52;;;;;;;26.46;26.84;103372.66;4974078;28;20201;-77
2021/10/09 11:20:00;;;;;;;14.57;7.97;;;;;;;26.70;27.76;103370.78;4958084;28;20224;-77
2021/10/09 11:22:47;;;;;;;10.57;7.70;;;;;;;25.59;27.52;103370.31;4989667;28;20228;-77
2021/10/09 11:25:35;;;;;;;13.05;8.20;;;;;;;26.34;27.80;103368.34;4957919;29;20288;-77
2021/10/09 11:28:03;;;;;;;11.98;7.63;;;;;;;25.63;29.29;103366.81;4968345;28;20688;-77
2021/10/09 11:30:31;;;;;;;13.93;7.88;;;;;;;25.11;29.59;103365.13;4989730;28;20562;-77
2021/10/09 11:32:57;;;;;;;10.32;8.35;;;;;;;25.82;28.85;103364.16;4990277;28;20240;-77
2021/10/09 11:35:34;;;;;;;12.20;7.95;;;;;;;25.67;29.07;103351.06;4973785;28;20360;-77
2021/10/09 11:38:02;;;;;;;11.05;7.95;;;;;;;26.35;27.91;103354.34;4959423;28;20191;-78
2021/10/09 11:40:50;;;;;;;10.27;8.07;;;;;;;27.76;26.07;103349.66;4990289;28;20189;-78
2021/10/09 11:45:54;;;;;;;9.82;7.00;;;;;;;31.35;21.59;103342.84;4971306;28;20231;-77
2021/10/09 11:54:45;;;;;;;11.00;7.00;;;;;;;32.30;20.06;103333.91;4978820;28;20232;-78
2021/10/09 11:56:51;;;;;;;13.23;7.63;;;;;;;32.47;19.87;103334.25;4979935;28;20239;-78
2021/10/09 11:59:33;;;;;;;12.27;7.30;;;;;;;33.98;19.55;103327.16;4961902;28;20205;-78
2021/10/09 12:01:58;;;;;;;11.70;7.22;;;;;;;35.76;17.69;103330.19;4970491;28;20189;-78
2021/10/09 12:04:24;;;;;;;10.85;7.50;;;;;;;35.18;18.32;103331.00;4977257;28;20296;-77
2021/10/09 12:10:11;;;;;;;9.80;6.97;;;;;;;35.02;18.02;103321.94;4979553;28;20530;-78
2021/10/09 12:12:36;;;;;;;9.48;6.70;;;;;;;34.16;18.24;103321.94;4978712;28;20219;-78
2021/10/09 12:15:02;;;;;;;8.60;6.85;;;;;;;34.07;18.49;103322.31;4977350;28;20204;-78
2021/10/09 12:17:36;;;;;;;11.18;7.38;;;;;;;31.49;20.19;103323.00;4975363;28;20184;-78
2021/10/09 12:20:05;;;;;;;8.88;7.07;;;;;;;31.37;19.44;103322.47;4973766;28;20217;-78
2021/10/09 12:22:44;;;;;;;9.30;6.90;;;;;;;33.06;20.03;103319.00;4963297;28;20191;-77
2021/10/09 12:25:26;;;;;;;9.40;7.47;;;;;;;32.30;20.34;103319.75;4980678;28;20219;-77
2021/10/09 12:27:57;;;;;;;9.20;7.07;;;;;;;33.61;18.68;103313.47;4980498;28;20663;-78
2021/10/09 12:30:37;;;;;;;8.40;6.68;;;;;;;34.40;17.92;103314.81;4982019;28;20188;-79
2021/10/09 12:33:03;;;;;;;10.13;6.68;;;;;;;33.92;18.07;103314.94;4980561;28;20248;-77
2021/10/09 12:35:30;;;;;;;8.25;6.35;;;;;;;32.08;19.42;103313.34;4970006;28;20690;-78
2021/10/09 12:38:09;;;;;;;9.52;6.90;;;;;;;34.02;18.59;103305.66;4977518;28;20177;-77
2021/10/09 12:40:36;;;;;;;9.15;7.28;;;;;;;33.60;18.16;103307.28;4963866;28;20622;-78
2021/10/09 12:43:01;;;;;;;10.48;7.05;;;;;;;31.36;20.05;103310.16;4959838;28;20213;-77
2021/10/09 12:45:28;;;;;;;11.23;7.00;;;;;;;31.53;18.71;103303.44;4964775;28;20219;-78
2021/10/09 12:47:58;;;;;;;8.75;6.28;;;;;;;32.40;18.85;103300.84;4970287;28;20206;-77
2021/10/09 12:50:26;;;;;;;10.48;6.38;;;;;;;33.28;18.89;103294.25;4987996;28;20198;-76
2021/10/09 12:52:53;;;;;;;9.82;6.85;;;;;;;32.71;18.14;103287.41;4957694;28;20284;-77
2021/10/09 12:55:22;;;;;;;8.55;6.60;;;;;;;33.21;18.93;103286.56;4971778;28;20638;-76
2021/10/09 12:57:52;;;;;;;12.23;6.35;;;;;;;32.92;17.83;103282.25;4957412;28;20186;-77
2021/10/09 13:00:18;;;;;;;9.57;6.40;;;;;;;33.03;18.75;103288.09;4972893;28;20208;-77
2021/10/09 13:02:44;;;;;;;11.32;5.97;;;;;;;31.04;20.08;103287.16;4967190;28;20185;-76
2021/10/09 13:05:09;;;;;;;12.80;7.00;;;;;;;32.39;17.94;103274.34;4977490;28;20203;-77
2021/10/09 13:07:35;;;;;;;9.13;6.22;;;;;;;32.03;18.57;103273.69;4976304;28;20200;-76
2021/10/09 13:10:00;;;;;;;9.52;5.85;;;;;;;31.45;19.63;103280.75;4963057;28;20289;-76
2021/10/09 13:12:26;;;;;;;12.55;5.90;;;;;;;30.14;20.79;103284.06;4972774;28;20220;-76
2021/10/09 13:14:51;;;;;;;8.93;6.37;;;;;;;28.19;22.95;103290.28;4988683;28;20221;-76
2021/10/09 13:17:16;;;;;;;10.07;6.07;;;;;;;26.49;24.76;103293.78;4974795;28;20206;-76
2021/10/09 13:19:41;;;;;;;10.13;6.50;;;;;;;25.39;25.86;103286.41;4976406;28;20270;-76
2021/10/09 13:22:07;;;;;;;9.37;5.60;;;;;;;24.21;27.89;103295.06;4976647;28;20193;-75
2021/10/09 13:24:32;;;;;;;10.13;6.13;;;;;;;24.55;27.00;103288.13;4977191;28;20304;-77
2021/10/09 13:26:57;;;;;;;10.97;5.70;;;;;;;24.68;26.68;103288.16;4978016;28;20197;-76
2021/10/09 13:29:23;;;;;;;9.73;5.43;;;;;;;23.70;27.60;103289.59;4957899;28;20561;-77
2021/10/09 13:31:48;;;;;;;8.67;5.93;;;;;;;24.05;27.95;103280.19;4974161;28;20578;-76
2021/10/09 13:34:15;;;;;;;8.53;5.60;;;;;;;24.56;27.78;103282.00;4976818;28;20200;-76
2021/10/09 13:36:41;;;;;;;9.73;6.40;;;;;;;23.21;28.76;103286.72;4975693;28;20196;-76